Time;durP1;ratioP1;P1;durP2;ratioP2;P2;SDS_P1;SDS_P2;PMS_P1;PMS_P2;Temp;Humidity;BMP_temperature;BMP_pressure;BME280_temperature;BME280_humidity;BME280_pressure;Samples;Min_cycle;Max_cycle;Signal;HPM_P1;HPM_P2
2024/02/08 00:04:21;;;;;;;13.40;3.40;;;;;;;-1.33;100.00;99412.04;214625;1291;139124;-86
2024/02/08 00:09:21;;;;;;;11.40;3.70;;;;;;;-1.38;100.00;99409.84;214838;1288;138112;-86
2024/02/08 00:14:23;;;;;;;11.70;4.10;;;;;;;-1.40;100.00;99411.98;214510;1287;139734;-86
2024/02/08 00:19:24;;;;;;;13.00;3.80;;;;;;;-1.43;100.00;99412.23;214676;1288;138361;-87
2024/02/08 00:24:24;;;;;;;13.40;3.80;;;;;;;-1.47;100.00;99409.23;213440;1293;139923;-88
2024/02/08 00:29:26;;;;;;;14.10;4.40;;;;;;;-1.51;100.00;99407.50;214595;1288;95257;-88
2024/02/08 00:34:27;;;;;;;10.90;3.60;;;;;;;-1.54;100.00;99410.52;214008;1291;139376;-87
2024/02/08 00:39:27;;;;;;;12.90;4.30;;;;;;;-1.57;100.00;99417.96;214289;1287;138605;-87
2024/02/08 00:44:27;;;;;;;20.20;4.60;;;;;;;-1.62;100.00;99425.08;213773;1291;139408;-87
2024/02/08 00:49:28;;;;;;;13.80;4.20;;;;;;;-1.66;100.00;99420.04;214314;1288;138548;-88
2024/02/08 00:54:28;;;;;;;12.30;4.10;;;;;;;-1.68;100.00;99421.41;213526;1292;139179;-87
2024/02/08 00:59:29;;;;;;;14.90;4.60;;;;;;;-1.70;100.00;99421.52;214235;1287;95431;-87
2024/02/08 01:04:29;;;;;;;21.30;7.00;;;;;;;-1.72;100.00;99421.45;213476;1292;139234;-87
2024/02/08 01:09:29;;;;;;;25.70;8.90;;;;;;;-1.76;100.00;99426.25;214049;1293;138189;-88
2024/02/08 01:14:30;;;;;;;28.00;10.10;;;;;;;-1.81;100.00;99426.96;214109;1288;139710;-87
2024/02/08 01:19:31;;;;;;;40.10;14.00;;;;;;;-1.82;100.00;99426.80;215614;1288;138530;-88
2024/02/08 01:24:32;;;;;;;43.40;15.20;;;;;;;-1.85;100.00;99428.45;213508;1290;139443;-88
2024/02/08 01:29:33;;;;;;;28.80;11.90;;;;;;;-1.90;100.00;99431.38;214493;1288;138573;-87
2024/02/08 01:34:34;;;;;;;28.70;10.80;;;;;;;-1.95;100.00;99426.09;214027;1293;139607;-89
2024/02/08 01:39:34;;;;;;;29.20;11.40;;;;;;;-1.98;100.00;99427.58;214290;1290;138302;-89
2024/02/08 01:44:35;;;;;;;38.50;13.10;;;;;;;-2.01;100.00;99433.92;214014;1287;139412;-88
2024/02/08 01:49:35;;;;;;;32.90;11.30;;;;;;;-2.03;100.00;99433.29;214771;1291;140227;-89
2024/02/08 01:54:43;;;;;;;28.80;9.90;;;;;;;-2.07;100.00;99435.89;214331;1287;139671;-89
2024/02/08 01:59:52;;;;;;;33.20;11.70;;;;;;;-2.10;100.00;99433.36;214693;1292;138341;-89
2024/02/08 02:04:53;;;;;;;31.00;9.80;;;;;;;-2.13;100.00;99430.89;214806;1292;247140;-89
2024/02/08 02:09:55;;;;;;;24.80;9.80;;;;;;;-2.19;100.00;99428.77;214277;1287;140270;-89
2024/02/08 02:14:58;;;;;;;22.90;8.00;;;;;;;-2.22;100.00;99422.71;214817;1287;139162;-88
2024/02/08 02:20:05;;;;;;;25.50;8.50;;;;;;;-2.22;100.00;99418.94;215918;1287;139619;-90
2024/02/08 02:25:06;;;;;;;17.40;7.00;;;;;;;-2.21;100.00;99413.67;213837;1292;139286;-89
2024/02/08 02:30:15;;;;;;;24.90;8.80;;;;;;;-2.21;100.00;99413.35;213285;1290;139407;-90
2024/02/08 02:35:17;;;;;;;23.50;9.00;;;;;;;-2.23;100.00;99409.76;214090;1289;108607;-91
2024/02/08 02:40:24;;;;;;;20.20;8.00;;;;;;;-2.23;100.00;99400.27;213540;1290;140203;-89
2024/02/08 02:45:28;;;;;;;27.30;10.20;;;;;;;-2.25;100.00;99405.19;214274;1291;138999;-90
2024/02/08 02:50:29;;;;;;;16.80;7.50;;;;;;;-2.25;100.00;99412.28;214161;1288;140118;-90
2024/02/08 02:55:31;;;;;;;34.30;9.50;;;;;;;-2.27;100.00;99413.04;214214;1288;139048;-91
2024/02/08 03:00:35;;;;;;;26.40;8.90;;;;;;;-2.30;100.00;99407.30;213624;1289;139854;-91
2024/02/08 03:05:36;;;;;;;21.40;8.40;;;;;;;-2.30;100.00;99404.05;214336;1291;138553;-91
2024/02/08 03:10:37;;;;;;;38.40;12.40;;;;;;;-2.30;100.00;99397.22;213428;1293;139461;-91
2024/02/08 03:15:38;;;;;;;34.50;11.90;;;;;;;-2.29;100.00;99396.30;214605;1288;138624;-92
2024/02/08 04:02:13;;;;;;;47.10;15.70;;;;;;;-2.20;100.00;99398.21;215829;1294;105268;-83
2024/02/08 04:07:34;;;;;;;111.70;33.50;;;;;;;-2.20;100.00;99399.80;215333;1289;138900;-82
2024/02/08 04:55:10;;;;;;;127.10;39.90;;;;;;;-2.28;100.00;99399.89;214888;1290;244430;-83
2024/02/08 05:00:12;;;;;;;92.60;34.90;;;;;;;-2.29;100.00;99401.88;214657;1294;140424;-83
2024/02/08 05:05:13;;;;;;;66.90;26.90;;;;;;;-2.28;100.00;99402.27;215443;1291;96761;-83
2024/02/08 05:10:15;;;;;;;45.80;19.10;;;;;;;-2.28;100.00;99417.14;214938;1289;141403;-83
2024/02/08 05:15:15;;;;;;;51.40;20.60;;;;;;;-2.27;100.00;99424.42;215341;1289;139334;-83
2024/02/08 05:20:16;;;;;;;54.30;20.20;;;;;;;-2.25;100.00;99421.89;214899;1293;139983;-83
2024/02/08 05:25:16;;;;;;;50.20;18.10;;;;;;;-2.23;100.00;99418.00;215410;1289;138720;-83
2024/02/08 05:30:17;;;;;;;129.30;42.50;;;;;;;-2.21;100.00;99407.36;214880;1289;141839;-83
2024/02/08 05:35:19;;;;;;;121.10;39.80;;;;;;;-2.17;100.00;99411.48;215521;1291;96491;-82
2024/02/08 05:40:20;;;;;;;84.00;29.40;;;;;;;-2.14;100.00;99406.70;214812;1289;140374;-82
2024/02/08 05:45:23;;;;;;;74.50;26.60;;;;;;;-2.10;100.00;99403.79;215355;1289;138780;-83
2024/02/08 05:50:24;;;;;;;45.60;19.20;;;;;;;-2.07;100.00;99408.54;214578;1292;140685;-83
2024/02/08 05:55:24;;;;;;;40.90;16.40;;;;;;;-2.03;100.00;99406.31;215090;1292;138847;-83
2024/02/08 06:00:45;;;;;;;51.10;19.00;;;;;;;-2.01;100.00;99409.96;214719;1291;140614;-83
2024/02/08 06:05:49;;;;;;;68.70;24.40;;;;;;;-1.99;100.00;99406.15;215263;1294;96565;-83
2024/02/08 06:10:52;;;;;;;62.70;22.10;;;;;;;-1.95;100.00;99408.02;215702;1291;140394;-83
2024/02/08 06:16:00;;;;;;;65.60;23.70;;;;;;;-1.91;100.00;99408.86;215288;1292;138981;-83
2024/02/08 06:21:12;;;;;;;72.30;24.30;;;;;;;-1.88;100.00;99410.39;214805;1291;139907;-83
2024/02/08 06:31:19;;;;;;;69.70;25.40;;;;;;;-1.82;100.00;99423.73;214885;1289;139853;-83
2024/02/08 06:36:22;;;;;;;109.40;33.50;;;;;;;-1.78;100.00;99423.29;215331;1289;138683;-84
2024/02/08 06:41:51;;;;;;;66.40;24.80;;;;;;;-1.75;100.00;99428.19;215005;1291;140248;-83
2024/02/08 06:46:56;;;;;;;53.90;16.90;;;;;;;-1.72;100.00;99428.89;215145;1294;138528;-83
2024/02/08 07:40:18;;;;;;;50.00;16.90;;;;;;;-0.92;100.00;99400.29;216371;1291;139820;-84
2024/02/08 07:45:26;;;;;;;42.20;16.10;;;;;;;-0.81;100.00;99404.87;215182;1290;240632;-84
2024/02/08 07:50:35;;;;;;;45.60;17.80;;;;;;;-0.74;100.00;99411.19;214792;1291;140873;-84
2024/02/08 08:05:42;;;;;;;37.10;15.50;;;;;;;-0.54;100.00;99408.89;215513;1292;96539;-85
2024/02/08 08:10:47;;;;;;;46.50;16.60;;;;;;;-0.45;100.00;99403.52;214776;1291;140054;-84
2024/02/08 08:16:35;;;;;;;42.50;16.20;;;;;;;-0.36;100.00;99395.91;215211;1289;139677;-84
2024/02/08 08:21:25;;;;;;;45.40;16.30;;;;;;;-0.25;100.00;99397.33;214865;1289;139961;-85
2024/02/08 08:26:39;;;;;;;42.30;16.90;;;;;;;-0.17;100.00;99395.31;214986;1290;139220;-85
2024/02/08 08:31:52;;;;;;;47.60;18.60;;;;;;;-0.07;100.00;99401.46;214623;1290;140177;-85
2024/02/08 08:37:02;;;;;;;40.80;16.60;;;;;;;0.00;100.00;99401.11;215097;1289;139338;-85
2024/02/08 08:42:05;;;;;;;41.10;16.80;;;;;;;0.07;100.00;99379.95;214905;1290;139663;-85
2024/02/08 08:47:06;;;;;;;43.30;17.40;;;;;;;0.15;100.00;99373.98;215204;1289;140131;-86
2024/02/08 08:52:06;;;;;;;48.70;17.40;;;;;;;0.25;100.00;99362.26;214867;1292;139227;-86
2024/02/08 08:57:12;;;;;;;46.60;18.30;;;;;;;0.32;100.00;99367.98;215089;1290;139040;-86
2024/02/08 09:02:12;;;;;;;41.10;17.40;;;;;;;0.37;100.00;99369.86;214576;1290;139494;-86
2024/02/08 09:07:13;;;;;;;41.10;17.20;;;;;;;0.44;100.00;99367.77;215106;1291;140029;-87
2024/02/08 09:12:14;;;;;;;50.40;20.20;;;;;;;0.50;100.00;99368.92;214452;1291;140040;-87
2024/02/08 09:17:25;;;;;;;45.50;19.50;;;;;;;0.55;100.00;99370.39;215085;1290;96628;-86
2024/02/08 09:22:31;;;;;;;44.80;19.20;;;;;;;0.60;100.00;99367.88;214725;1289;141827;-85
2024/02/08 09:27:34;;;;;;;46.00;19.20;;;;;;;0.70;100.00;99379.66;215015;1292;138405;-86
2024/02/08 09:32:43;;;;;;;43.00;18.50;;;;;;;0.79;100.00;99380.18;214773;1290;139339;-87
2024/02/08 09:37:47;;;;;;;40.70;18.50;;;;;;;0.85;100.00;99375.65;215422;1290;138962;-86
2024/02/08 09:42:55;;;;;;;57.60;21.70;;;;;;;0.95;100.00;99382.95;214829;1289;139781;-87
2024/02/08 09:48:00;;;;;;;50.20;21.70;;;;;;;1.06;100.00;99370.83;215291;1291;106652;-86
2024/02/08 09:53:07;;;;;;;53.60;21.20;;;;;;;1.18;100.00;99367.90;214848;1289;139518;-87
2024/02/08 09:58:10;;;;;;;49.60;22.80;;;;;;;1.29;100.00;99368.15;215358;1290;138890;-86
2024/02/08 10:03:31;;;;;;;53.30;22.70;;;;;;;1.36;100.00;99356.44;214878;1291;140466;-86
2024/02/08 10:08:32;;;;;;;57.00;21.90;;;;;;;1.47;100.00;99344.98;215325;1291;139397;-86
2024/02/08 10:13:40;;;;;;;59.50;22.90;;;;;;;1.54;100.00;99342.80;214846;1291;139353;-87
2024/02/08 10:18:41;;;;;;;61.20;22.50;;;;;;;1.60;100.00;99354.13;215185;1289;139170;-86
2024/02/08 10:23:58;;;;;;;59.40;21.80;;;;;;;1.67;100.00;99352.10;215044;1291;140348;-89
2024/02/08 10:29:07;;;;;;;;;;;;;;;1.75;100.00;99338.98;215143;1294;139098;-88
2024/02/08 10:34:23;;;;;;;54.20;20.60;;;;;;;1.78;100.00;99331.10;214971;1292;125281;-87
2024/02/08 10:39:26;;;;;;;46.90;21.70;;;;;;;1.82;100.00;99318.20;215312;1293;138567;-87
2024/02/08 10:44:34;;;;;;;47.00;19.70;;;;;;;1.88;100.00;99309.05;214796;1289;140210;-88
2024/02/08 10:49:46;;;;;;;59.30;22.80;;;;;;;1.95;100.00;99293.13;215103;1291;139307;-89
2024/02/08 10:54:53;;;;;;;57.40;22.20;;;;;;;1.95;100.00;99277.85;214451;1294;140990;-87
2024/02/08 10:59:58;;;;;;;58.30;21.60;;;;;;;1.94;100.00;99280.86;214648;1294;139577;-87
2024/02/08 11:10:35;;;;;;;65.20;24.90;;;;;;;1.97;100.00;99294.03;216056;1289;139985;-89
2024/02/08 11:15:40;;;;;;;52.20;22.30;;;;;;;2.03;100.00;99294.27;215358;1290;138192;-91
2024/02/08 11:20:44;;;;;;;60.30;22.20;;;;;;;2.09;100.00;99294.95;214797;1291;139769;-89
2024/02/08 11:25:45;;;;;;;48.30;20.00;;;;;;;2.11;100.00;99287.80;215277;1289;138471;-90
2024/02/08 11:30:46;;;;;;;46.10;19.30;;;;;;;2.10;100.00;99287.17;214839;1291;140546;-88
2024/02/08 11:35:56;;;;;;;49.00;18.70;;;;;;;2.10;100.00;99282.04;215314;1290;105410;-90
2024/02/08 11:41:09;;;;;;;52.20;19.30;;;;;;;2.14;100.00;99274.77;214821;1290;140737;-88
2024/02/08 11:46:18;;;;;;;47.30;20.70;;;;;;;2.15;100.00;99266.58;215279;1291;138837;-91
2024/02/08 11:51:33;;;;;;;48.90;20.70;;;;;;;2.12;100.00;99249.77;214607;1291;139705;-90
2024/02/08 11:56:34;;;;;;;51.40;18.70;;;;;;;2.18;100.00;99244.48;215430;1291;138534;-89
2024/02/08 12:01:36;;;;;;;43.40;17.70;;;;;;;2.16;100.00;99242.81;214889;1289;139891;-90
2024/02/08 12:06:45;;;;;;;47.70;19.40;;;;;;;2.17;100.00;99250.67;215234;1291;139233;-89
2024/02/08 12:11:47;;;;;;;48.20;19.10;;;;;;;2.24;100.00;99247.67;214881;1289;139643;-91
2024/02/08 12:16:50;;;;;;;47.10;19.30;;;;;;;2.34;100.00;99241.31;215168;1291;139101;-90
2024/02/08 12:21:57;;;;;;;42.60;18.00;;;;;;;2.41;100.00;99244.36;214792;1289;140520;-91
2024/02/08 12:27:25;;;;;;;45.10;19.30;;;;;;;2.50;100.00;99244.74;215446;1290;138948;-91
2024/02/08 12:32:30;;;;;;;43.60;18.50;;;;;;;2.59;100.00;99239.67;214876;1291;140560;-90
2024/02/08 12:37:31;;;;;;;51.70;19.30;;;;;;;2.64;100.00;99241.27;215048;1289;138466;-91
2024/02/08 12:42:34;;;;;;;46.00;20.70;;;;;;;2.68;100.00;99223.60;214807;1291;139802;-91
2024/02/08 12:47:34;;;;;;;48.50;18.80;;;;;;;2.75;100.00;99228.30;215150;1289;97042;-91
2024/02/08 12:52:36;;;;;;;52.00;20.70;;;;;;;2.83;100.00;99227.66;214712;1289;139169;-92
2024/02/08 12:57:36;;;;;;;43.50;19.00;;;;;;;2.90;100.00;99216.08;214917;1294;138315;-90
2024/02/08 13:02:37;;;;;;;51.60;20.50;;;;;;;2.98;100.00;99209.66;214587;1289;140695;-90
2024/02/08 13:07:37;;;;;;;54.90;21.90;;;;;;;3.09;100.00;99206.86;215211;1289;138968;-90
2024/02/08 13:12:37;;;;;;;47.70;21.40;;;;;;;3.20;100.00;99198.10;214900;1289;139963;-90
2024/02/08 13:17:38;;;;;;;50.30;19.80;;;;;;;3.28;100.00;99198.48;215284;1291;96477;-91
2024/02/08 13:22:41;;;;;;;56.10;22.00;;;;;;;3.34;100.00;99199.84;214859;1289;139612;-89
2024/02/08 13:27:44;;;;;;;58.80;23.80;;;;;;;3.40;100.00;99200.34;215328;1291;140022;-88
2024/02/08 13:32:51;;;;;;;52.20;23.00;;;;;;;3.49;100.00;99189.19;214849;1292;139553;-91
2024/02/08 13:37:56;;;;;;;54.80;22.90;;;;;;;3.50;100.00;99185.09;215294;1289;138627;-90
2024/02/08 13:42:58;;;;;;;56.30;23.10;;;;;;;3.50;100.00;99180.49;214657;1289;140978;-90
2024/02/08 13:48:00;;;;;;;60.20;24.50;;;;;;;3.54;100.00;99179.80;215267;1288;96521;-89
2024/02/08 13:53:01;;;;;;;59.00;23.50;;;;;;;3.55;100.00;99185.17;214722;1291;140463;-91
2024/02/08 13:58:06;;;;;;;53.70;22.20;;;;;;;3.57;100.00;99186.39;215226;1293;139094;-91
2024/02/08 14:03:08;;;;;;;45.10;20.80;;;;;;;3.60;100.00;99177.82;214675;1294;141015;-90
2024/02/08 14:08:17;;;;;;;52.60;22.30;;;;;;;3.63;100.00;99170.02;215180;1289;138383;-90
2024/02/08 14:13:28;;;;;;;61.50;24.20;;;;;;;3.67;100.00;99168.84;214754;1291;140836;-90
2024/02/08 14:18:31;;;;;;;51.80;21.60;;;;;;;3.70;100.00;99167.19;215474;1293;138939;-89
2024/02/08 14:23:37;;;;;;;51.00;22.70;;;;;;;3.73;100.00;99164.38;214773;1291;140577;-90
2024/02/08 14:28:42;;;;;;;56.50;23.90;;;;;;;3.75;100.00;99158.96;215102;1292;138480;-89
2024/02/08 14:33:45;;;;;;;54.00;22.40;;;;;;;3.73;100.00;99155.67;215048;1293;139553;-90
2024/02/08 14:38:48;;;;;;;51.80;22.00;;;;;;;3.73;100.00;99146.34;215037;1293;139282;-89
2024/02/08 14:43:53;;;;;;;60.90;26.00;;;;;;;3.73;100.00;99149.69;214619;1291;140009;-88
2024/02/08 14:48:53;;;;;;;53.80;23.40;;;;;;;3.71;100.00;99152.13;215201;1292;138383;-89
2024/02/08 14:53:54;;;;;;;59.20;26.70;;;;;;;3.70;100.00;99143.70;215000;1291;140496;-91
2024/02/08 14:59:09;;;;;;;56.10;27.60;;;;;;;3.66;100.00;99142.63;215367;1289;138457;-93
2024/02/08 15:04:17;;;;;;;58.80;25.50;;;;;;;3.61;100.00;99139.45;214642;1291;140793;-91
2024/02/08 15:14:36;;;;;;;58.70;26.40;;;;;;;3.55;100.00;99132.58;214763;1289;139202;-90
2024/02/08 15:19:45;;;;;;;50.20;23.60;;;;;;;3.55;100.00;99130.61;215330;1289;140847;-90
2024/02/08 15:24:48;;;;;;;48.80;24.00;;;;;;;3.54;100.00;99130.13;214715;1291;140430;-89
2024/02/08 15:29:52;;;;;;;53.10;24.30;;;;;;;3.48;100.00;99126.30;215331;1289;96511;-90
2024/02/08 15:40:09;;;;;;;56.00;24.00;;;;;;;3.43;100.00;99125.44;215576;1292;139215;-90
2024/02/08 15:45:11;;;;;;;57.80;26.20;;;;;;;3.36;100.00;99125.54;215849;1289;243289;-89
2024/02/08 15:50:15;;;;;;;55.50;23.70;;;;;;;3.30;100.00;99123.72;214738;1291;139634;-90
2024/02/08 15:55:15;;;;;;;62.20;26.30;;;;;;;3.27;100.00;99128.95;215418;1289;139464;-90
2024/02/08 16:01:01;;;;;;;51.20;25.20;;;;;;;3.25;100.00;99136.12;214538;1291;139773;-89
2024/02/08 16:05:46;;;;;;;59.00;26.80;;;;;;;3.17;100.00;99125.79;215155;1291;96539;-89
2024/02/08 16:10:49;;;;;;;57.80;25.50;;;;;;;3.07;100.00;99123.81;214639;1291;139204;-90
2024/02/08 16:15:55;;;;;;;57.10;25.30;;;;;;;3.00;100.00;99121.97;215061;1294;138319;-93
2024/02/08 16:20:58;;;;;;;61.50;26.10;;;;;;;2.92;100.00;99110.70;217498;1291;139443;-87
2024/02/08 16:26:09;;;;;;;71.70;32.70;;;;;;;2.90;100.00;99109.65;215751;1292;138503;-91
2024/02/08 16:31:24;;;;;;;70.90;32.20;;;;;;;2.87;100.00;99100.44;214217;1289;140309;-90
2024/02/08 16:41:31;;;;;;;71.80;33.10;;;;;;;2.74;100.00;99097.61;214731;1291;140031;-91
2024/02/08 16:46:37;;;;;;;70.80;32.60;;;;;;;2.73;100.00;99095.09;215059;1294;139157;-93
2024/02/08 16:51:39;;;;;;;79.90;35.80;;;;;;;2.69;100.00;99098.21;214868;1292;140358;-91
2024/02/08 16:56:56;;;;;;;61.40;30.40;;;;;;;2.63;100.00;99094.27;215102;1291;138844;-92
2024/02/08 17:02:26;;;;;;;100.50;46.60;;;;;;;2.60;100.00;99089.73;214448;1289;139958;-91
2024/02/08 17:12:51;;;;;;;117.10;48.10;;;;;;;2.56;100.00;99077.14;214669;1289;140531;-92
2024/02/08 17:17:54;;;;;;;99.10;45.70;;;;;;;2.51;100.00;99077.56;215198;1290;96681;-90
2024/02/08 17:23:04;;;;;;;111.10;51.20;;;;;;;2.47;100.00;99067.94;214652;1291;140312;-91
2024/02/08 17:28:14;;;;;;;120.90;56.00;;;;;;;2.49;100.00;99067.21;215247;1292;138900;-91
2024/02/08 17:33:14;;;;;;;129.10;55.70;;;;;;;2.48;100.00;99060.90;214551;1290;140041;-91
2024/02/08 17:38:19;;;;;;;98.60;46.10;;;;;;;2.43;100.00;99056.76;215154;1292;139807;-91
2024/02/08 17:43:23;;;;;;;107.00;45.70;;;;;;;2.40;100.00;99047.25;214412;1294;139025;-91
2024/02/08 17:48:27;;;;;;;104.10;45.60;;;;;;;2.40;100.00;99037.77;215204;1294;138723;-91
2024/02/08 17:53:31;;;;;;;91.40;39.40;;;;;;;2.37;100.00;99035.63;214838;1289;139715;-92
2024/02/08 17:58:34;;;;;;;98.20;44.10;;;;;;;2.37;100.00;99035.23;215136;1292;138411;-91
2024/02/08 18:03:35;;;;;;;95.80;43.30;;;;;;;2.33;100.00;99023.73;214738;1294;139806;-91
2024/02/08 18:08:38;;;;;;;84.20;41.90;;;;;;;2.31;100.00;99024.33;215098;1290;140535;-91
2024/02/08 18:13:38;;;;;;;86.00;40.50;;;;;;;2.28;100.00;99017.76;214717;1289;139742;-91
2024/02/08 18:18:40;;;;;;;77.30;34.30;;;;;;;2.28;100.00;99017.12;215220;1291;138397;-91
2024/02/08 18:23:45;;;;;;;58.70;26.60;;;;;;;2.29;100.00;99012.19;214564;1290;139629;-92
2024/02/08 18:28:45;;;;;;;54.80;23.20;;;;;;;2.32;100.00;99006.58;215155;1292;138200;-91
2024/02/08 18:33:49;;;;;;;48.10;22.20;;;;;;;2.35;100.00;99003.08;214399;1291;139328;-91
2024/02/08 18:38:52;;;;;;;43.30;20.70;;;;;;;2.39;100.00;99001.00;215095;1289;138379;-92
2024/02/08 18:43:55;;;;;;;46.30;19.60;;;;;;;2.43;100.00;98995.02;214542;1295;140332;-92
2024/02/08 18:49:00;;;;;;;45.70;21.60;;;;;;;2.46;100.00;98996.48;215339;1292;138568;-91
2024/02/08 18:54:02;;;;;;;37.30;20.70;;;;;;;2.49;100.00;98997.64;214708;1295;140286;-91
2024/02/08 18:59:05;;;;;;;33.80;16.20;;;;;;;2.53;100.00;99002.13;215213;1292;138494;-91
2024/02/08 19:04:09;;;;;;;39.00;18.70;;;;;;;2.54;100.00;99005.49;215010;1289;140810;-92
2024/02/08 19:09:18;;;;;;;29.10;11.10;;;;;;;2.55;100.00;99010.55;215311;1290;137501;-91
2024/02/08 19:14:21;;;;;;;28.00;11.80;;;;;;;2.53;100.00;99012.77;214880;1289;139627;-90
2024/02/08 19:19:22;;;;;;;24.40;11.10;;;;;;;2.54;100.00;99015.73;215189;1290;138427;-91
2024/02/08 19:24:27;;;;;;;26.60;11.90;;;;;;;2.53;100.00;99025.56;214603;1292;241198;-92
2024/02/08 19:29:28;;;;;;;23.50;10.10;;;;;;;2.49;100.00;99021.97;215245;1291;107443;-91
2024/02/08 19:34:31;;;;;;;31.40;11.80;;;;;;;2.46;100.00;99016.79;214742;1291;140278;-91
2024/02/08 19:44:34;;;;;;;34.60;14.20;;;;;;;2.41;100.00;99015.30;215343;1290;141051;-94
2024/02/08 19:49:38;;;;;;;31.80;13.80;;;;;;;2.40;100.00;99017.90;215807;1293;138348;-94
2024/02/08 19:54:38;;;;;;;36.60;15.30;;;;;;;2.39;100.00;99025.98;215139;1289;139329;-94
2024/02/08 19:59:42;;;;;;;34.10;17.20;;;;;;;2.36;100.00;99027.54;216324;1292;96684;-94
2024/02/08 20:04:44;;;;;;;34.60;16.00;;;;;;;2.31;100.00;99027.27;216184;1294;140616;-95
2024/02/08 20:09:48;;;;;;;36.70;16.50;;;;;;;2.25;100.00;99033.49;217414;1294;138935;-95
2024/02/08 20:15:16;;;;;;;48.50;19.90;;;;;;;2.22;100.00;99044.75;214119;1298;636300;-90
2024/02/08 20:20:21;;;;;;;36.40;16.70;;;;;;;2.16;100.00;99058.11;213697;1298;139074;-89
2024/02/08 20:25:25;;;;;;;28.80;15.40;;;;;;;2.13;100.00;99059.14;214511;1294;288289;-90
2024/02/08 20:30:28;;;;;;;37.40;16.20;;;;;;;2.12;100.00;99065.80;216165;1292;138728;-89
2024/02/08 20:35:31;;;;;;;40.50;18.20;;;;;;;2.10;100.00;99054.50;216434;1295;93983;-90
2024/02/08 20:40:32;;;;;;;40.90;18.70;;;;;;;2.05;100.00;99051.35;214580;1291;138677;-89
2024/02/08 20:45:32;;;;;;;39.10;17.20;;;;;;;2.03;100.00;99044.27;214395;1291;138015;-89
2024/02/08 20:50:34;;;;;;;34.20;16.90;;;;;;;2.00;100.00;99043.80;213185;1304;139662;-89
2024/02/08 20:55:40;;;;;;;40.00;17.70;;;;;;;1.97;100.00;99042.58;213467;1295;138782;-90
2024/02/08 21:00:42;;;;;;;40.90;18.80;;;;;;;1.95;100.00;99035.93;213148;1291;140641;-91
2024/02/08 21:05:48;;;;;;;44.00;20.20;;;;;;;1.92;100.00;99037.74;213761;1292;96445;-91
2024/02/08 21:10:52;;;;;;;51.00;22.20;;;;;;;1.91;100.00;99034.44;213000;1295;139578;-91
2024/02/08 21:15:53;;;;;;;66.80;28.90;;;;;;;1.86;100.00;99030.98;213322;1296;138009;-90
2024/02/08 21:20:55;;;;;;;57.10;25.70;;;;;;;1.81;100.00;99018.64;212892;1293;139385;-90
2024/02/08 21:25:56;;;;;;;65.50;28.00;;;;;;;1.76;100.00;99017.91;214879;1291;138409;-90
2024/02/08 21:30:56;;;;;;;57.70;25.90;;;;;;;1.72;100.00;99018.51;213265;1291;139550;-91
2024/02/08 21:36:03;;;;;;;53.60;25.80;;;;;;;1.71;100.00;99016.16;213849;1294;95400;-91
2024/02/08 21:41:04;;;;;;;56.10;24.80;;;;;;;1.71;100.00;99002.69;212982;1294;138895;-91
2024/02/08 21:46:05;;;;;;;43.70;19.30;;;;;;;1.65;100.00;98998.45;213570;1292;138168;-91
2024/02/08 21:51:06;;;;;;;44.60;17.80;;;;;;;1.65;100.00;98986.98;212978;1294;140095;-91
2024/02/08 21:56:14;;;;;;;43.70;17.40;;;;;;;1.61;100.00;98977.82;213659;1291;138237;-90
2024/02/08 22:01:14;;;;;;;36.80;15.80;;;;;;;1.57;100.00;98974.27;213125;1291;138868;-91
2024/02/08 22:06:20;;;;;;;32.00;14.50;;;;;;;1.56;100.00;98966.25;213816;1294;138650;-91
2024/02/08 22:11:22;;;;;;;28.60;11.80;;;;;;;1.58;100.00;98960.17;217732;1292;139764;-91
2024/02/08 22:16:22;;;;;;;30.40;12.50;;;;;;;1.58;100.00;98948.71;216341;1291;138193;-91
2024/02/08 22:21:23;;;;;;;26.10;12.60;;;;;;;1.57;100.00;98946.23;213096;1293;139991;-89
2024/02/08 22:26:26;;;;;;;25.90;12.30;;;;;;;1.57;100.00;98951.40;213465;1293;139078;-87
2024/02/08 22:31:26;;;;;;;24.30;10.20;;;;;;;1.52;100.00;98958.95;212922;1290;139138;-87
2024/02/08 22:36:29;;;;;;;28.70;12.40;;;;;;;1.49;100.00;98949.59;215451;1291;141537;-87
2024/02/08 22:41:30;;;;;;;31.70;13.20;;;;;;;1.44;100.00;98950.38;213409;1291;139422;-87
2024/02/08 22:46:32;;;;;;;30.30;13.50;;;;;;;1.40;100.00;98946.73;213769;1291;138477;-87
2024/02/08 22:51:33;;;;;;;30.50;13.10;;;;;;;1.42;100.00;98940.84;213036;1294;139029;-86
2024/02/08 22:56:43;;;;;;;34.00;14.00;;;;;;;1.44;100.00;98936.92;213085;1294;138392;-87
2024/02/08 23:01:43;;;;;;;37.20;14.10;;;;;;;1.44;100.00;98937.00;212733;1294;139348;-87
2024/02/08 23:06:44;;;;;;;30.10;14.10;;;;;;;1.45;100.00;98935.48;213014;1294;140512;-86
2024/02/08 23:11:45;;;;;;;38.70;14.60;;;;;;;1.43;100.00;98939.21;212551;1291;139989;-87
2024/02/08 23:16:50;;;;;;;375.20;100.10;;;;;;;1.39;100.00;98938.42;213525;1291;138363;-87
2024/02/08 23:21:51;;;;;;;339.20;83.30;;;;;;;1.38;100.00;98939.02;213284;1294;139357;-87
2024/02/08 23:26:52;;;;;;;68.90;27.00;;;;;;;1.35;100.00;98936.18;213625;1290;138497;-87
2024/02/08 23:31:52;;;;;;;47.70;19.50;;;;;;;1.31;100.00;98936.38;213385;1290;139315;-85
2024/02/08 23:36:53;;;;;;;40.30;17.90;;;;;;;1.29;100.00;98931.23;215290;1292;139315;-87
2024/02/08 23:41:56;;;;;;;41.40;18.80;;;;;;;1.28;100.00;98935.86;213303;1291;139644;-87
2024/02/08 23:46:56;;;;;;;42.70;18.70;;;;;;;1.30;100.00;98941.53;217400;1293;138190;-86
2024/02/08 23:51:58;;;;;;;42.50;17.00;;;;;;;1.28;100.00;98942.59;214009;1291;139055;-85
2024/02/08 23:56:59;;;;;;;46.00;19.20;;;;;;;1.27;100.00;98938.45;217355;1291;139221;-85
